Time;durP1;ratioP1;P1;durP2;ratioP2;P2;SDS_P1;SDS_P2;PMS_P1;PMS_P2;Temp;Humidity;BMP_temperature;BMP_pressure;BME280_temperature;BME280_humidity;BME280_pressure;Samples;Min_cycle;Max_cycle;Signal;HPM_P1;HPM_P2
2022/03/19 00:00:49;;;;;;;17.17;3.95;;;4.70;99.90;;;;;;5131702;27;20038;-79
2022/03/19 00:03:15;;;;;;;17.00;3.90;;;4.40;99.90;;;;;;5136042;27;20043;-79
2022/03/19 00:05:40;;;;;;;16.55;3.97;;;4.40;99.90;;;;;;5101397;27;20067;-79
2022/03/19 00:08:06;;;;;;;18.80;4.15;;;4.70;99.90;;;;;;5151909;27;20112;-79
2022/03/19 00:10:32;;;;;;;18.17;4.10;;;4.40;99.90;;;;;;5136018;27;20117;-79
2022/03/19 00:12:58;;;;;;;15.00;4.22;;;4.40;99.90;;;;;;5148958;27;20136;-79
2022/03/19 00:15:25;;;;;;;16.58;4.18;;;4.40;99.90;;;;;;5132790;27;20036;-79
2022/03/19 00:17:52;;;;;;;18.75;4.53;;;4.40;99.90;;;;;;5131944;27;20042;-79
2022/03/19 00:20:18;;;;;;;16.90;4.15;;;4.40;99.90;;;;;;5132759;27;20050;-79
2022/03/19 00:22:44;;;;;;;17.40;4.40;;;4.40;99.90;;;;;;5114155;27;20035;-79
2022/03/19 00:25:14;;;;;;;15.80;4.10;;;4.30;99.90;;;;;;5131638;27;20035;-79
2022/03/19 00:27:42;;;;;;;14.10;4.30;;;4.30;99.90;;;;;;5131666;27;20042;-79
2022/03/19 00:30:09;;;;;;;14.65;4.05;;;4.60;99.90;;;;;;5132277;27;20050;-79
2022/03/19 00:32:35;;;;;;;14.70;4.32;;;4.20;99.90;;;;;;5148117;27;20557;-79
2022/03/19 00:35:02;;;;;;;17.23;4.18;;;4.30;99.90;;;;;;5096852;27;20039;-79
2022/03/19 00:37:28;;;;;;;17.88;4.78;;;4.20;99.90;;;;;;5131233;27;20145;-79
2022/03/19 00:39:53;;;;;;;18.25;5.00;;;4.20;99.90;;;;;;5113866;27;20039;-79
2022/03/19 00:42:19;;;;;;;16.65;4.38;;;4.10;99.90;;;;;;5114247;27;20042;-79
2022/03/19 00:44:47;;;;;;;18.38;4.35;;;4.10;99.90;;;;;;5149030;27;20043;-79
2022/03/19 00:47:12;;;;;;;17.48;4.28;;;4.10;99.90;;;;;;5147602;27;20074;-79
2022/03/19 00:49:38;;;;;;;15.80;4.38;;;4.10;99.90;;;;;;5147815;27;20047;-79
2022/03/19 00:52:04;;;;;;;18.42;4.65;;;4.10;99.90;;;;;;5147973;27;20126;-79
2022/03/19 00:54:30;;;;;;;16.10;4.28;;;4.00;99.90;;;;;;5131385;27;20065;-79
2022/03/19 00:56:56;;;;;;;16.23;4.13;;;4.70;99.90;;;;;;5131959;27;20466;-79
2022/03/19 00:59:21;;;;;;;19.25;4.38;;;4.50;99.90;;;;;;5127378;28;20043;-79
2022/03/19 01:01:47;;;;;;;16.02;4.22;;;4.50;99.90;;;;;;5127140;28;20055;-79
2022/03/19 01:04:13;;;;;;;20.95;4.22;;;4.00;99.90;;;;;;5111017;28;20043;-79
2022/03/19 01:06:39;;;;;;;20.98;4.60;;;4.00;99.90;;;;;;5093267;28;20336;-79
2022/03/19 01:09:05;;;;;;;18.15;4.28;;;4.10;99.90;;;;;;5093629;28;20039;-79
2022/03/19 01:11:31;;;;;;;17.00;4.60;;;4.00;99.90;;;;;;5111450;27;20383;-79
2022/03/19 01:13:57;;;;;;;16.25;4.00;;;4.00;99.90;;;;;;5095807;27;20054;-79
2022/03/19 01:16:25;;;;;;;15.15;4.38;;;3.90;99.90;;;;;;5113082;27;20064;-79
2022/03/19 01:18:51;;;;;;;19.05;4.75;;;3.90;99.90;;;;;;5130349;27;20035;-79
2022/03/19 01:21:18;;;;;;;20.35;4.57;;;3.80;99.90;;;;;;5113095;27;20047;-79
2022/03/19 01:23:44;;;;;;;20.73;4.70;;;3.80;99.90;;;;;;5130115;27;20043;-79
2022/03/19 01:26:09;;;;;;;19.10;4.60;;;3.80;99.90;;;;;;5113527;27;20137;-79
2022/03/19 01:28:36;;;;;;;20.00;4.55;;;3.70;99.90;;;;;;5130228;27;20047;-79
2022/03/19 01:31:02;;;;;;;16.05;4.28;;;3.80;99.90;;;;;;5121982;27;20037;-79
2022/03/19 01:33:28;;;;;;;17.15;4.60;;;3.80;99.90;;;;;;5130352;27;20051;-79
2022/03/19 01:35:54;;;;;;;16.88;4.43;;;4.00;99.90;;;;;;5112906;27;20039;-79
2022/03/19 01:38:19;;;;;;;15.38;4.15;;;4.20;99.90;;;;;;5111532;27;20042;-79
2022/03/19 01:40:45;;;;;;;17.73;4.40;;;3.70;99.90;;;;;;5112317;27;20078;-79
2022/03/19 01:43:12;;;;;;;16.92;4.38;;;4.20;99.90;;;;;;5129148;27;20058;-79
2022/03/19 01:45:37;;;;;;;17.30;4.53;;;3.70;99.90;;;;;;5128710;27;20039;-79
2022/03/19 01:48:03;;;;;;;17.08;4.18;;;3.60;99.90;;;;;;5111960;27;20405;-79
2022/03/19 01:50:29;;;;;;;19.15;4.50;;;3.60;99.90;;;;;;5111780;27;20031;-79
2022/03/19 01:52:56;;;;;;;23.02;4.80;;;3.50;99.90;;;;;;5128243;27;20460;-79
2022/03/19 01:55:24;;;;;;;16.73;4.32;;;3.50;99.90;;;;;;5128713;27;20031;-79
2022/03/19 01:57:51;;;;;;;15.82;4.38;;;3.60;99.90;;;;;;5129354;27;20176;-79
2022/03/19 02:00:22;;;;;;;19.83;4.40;;;3.50;99.90;;;;;;5111317;27;20054;-79
2022/03/19 02:02:49;;;;;;;19.27;4.50;;;3.60;99.90;;;;;;5095268;27;20102;-79
2022/03/19 02:05:17;;;;;;;20.95;5.05;;;4.10;99.90;;;;;;5112122;27;20042;-79
2022/03/19 02:07:45;;;;;;;15.75;4.43;;;3.60;99.90;;;;;;5093364;27;20108;-79
2022/03/19 02:10:12;;;;;;;17.15;4.55;;;3.60;99.90;;;;;;5111836;27;20031;-79
2022/03/19 02:12:38;;;;;;;14.88;4.07;;;3.50;99.90;;;;;;5108298;28;20521;-79
2022/03/19 02:15:05;;;;;;;17.88;4.65;;;3.50;99.90;;;;;;5108551;28;20100;-79
2022/03/19 02:17:30;;;;;;;17.35;4.47;;;3.60;99.90;;;;;;5108564;28;20038;-79
2022/03/19 02:19:57;;;;;;;18.60;4.53;;;3.50;99.90;;;;;;5141990;27;20059;-79
2022/03/19 02:22:26;;;;;;;15.27;4.78;;;3.50;99.90;;;;;;5107109;28;20065;-79
2022/03/19 02:27:37;;;;;;;19.33;4.78;;;3.40;99.90;;;;;;5110030;28;20130;-79
2022/03/19 02:30:05;;;;;;;14.70;4.40;;;3.40;99.90;;;;;;5107764;28;20075;-79
2022/03/19 02:32:32;;;;;;;18.70;5.10;;;3.50;99.90;;;;;;5125461;28;20043;-79
2022/03/19 02:34:58;;;;;;;19.50;5.20;;;3.40;99.90;;;;;;5124559;28;20043;-79
2022/03/19 02:37:24;;;;;;;16.35;4.57;;;3.40;99.90;;;;;;5141373;27;20039;-79
2022/03/19 02:39:50;;;;;;;12.93;4.25;;;3.40;99.90;;;;;;5141650;27;20032;-79
2022/03/19 02:42:18;;;;;;;17.75;4.85;;;3.30;99.90;;;;;;5124385;28;20413;-79
2022/03/19 02:44:44;;;;;;;19.73;5.10;;;3.30;99.90;;;;;;5107689;28;20055;-79
2022/03/19 02:47:10;;;;;;;19.13;4.97;;;3.40;99.90;;;;;;5124365;28;20047;-79
2022/03/19 02:49:36;;;;;;;16.38;4.47;;;3.40;99.90;;;;;;5124395;28;20043;-79
2022/03/19 02:52:03;;;;;;;16.95;4.38;;;3.40;99.90;;;;;;5106702;28;20032;-79
2022/03/19 02:54:30;;;;;;;18.65;5.10;;;3.30;99.90;;;;;;5123637;28;20032;-79
2022/03/19 02:56:58;;;;;;;18.55;4.95;;;3.30;99.90;;;;;;5123679;28;20039;-79
2022/03/19 02:59:29;;;;;;;19.58;5.13;;;3.30;99.90;;;;;;5124188;28;20045;-79
2022/03/19 03:01:57;;;;;;;15.80;5.18;;;3.30;99.90;;;;;;5106906;28;20036;-79
2022/03/19 03:04:24;;;;;;;21.67;5.70;;;3.60;99.90;;;;;;5106629;28;20039;-79
2022/03/19 03:06:52;;;;;;;17.40;4.97;;;3.20;99.90;;;;;;5105809;28;20044;-79
2022/03/19 03:09:20;;;;;;;16.20;4.93;;;3.20;99.90;;;;;;5124234;28;20054;-79
2022/03/19 03:11:46;;;;;;;18.15;5.15;;;3.20;99.90;;;;;;5109857;27;20051;-79
2022/03/19 03:14:13;;;;;;;16.98;4.95;;;3.20;99.90;;;;;;5128375;27;20126;-79
2022/03/19 03:16:40;;;;;;;19.67;5.93;;;3.30;99.90;;;;;;5111373;27;20043;-79
2022/03/19 03:19:10;;;;;;;17.05;5.20;;;3.20;99.90;;;;;;5127483;27;20043;-79
2022/03/19 03:21:36;;;;;;;18.77;5.28;;;3.20;99.90;;;;;;5109822;28;20047;-79
2022/03/19 03:24:03;;;;;;;18.45;5.30;;;3.70;99.90;;;;;;5111308;27;20062;-79
2022/03/19 03:26:29;;;;;;;18.52;5.20;;;3.20;99.90;;;;;;5110797;27;20107;-79
2022/03/19 03:28:56;;;;;;;18.85;5.43;;;3.30;99.90;;;;;;5094905;27;20077;-79
2022/03/19 03:31:22;;;;;;;19.45;5.63;;;3.30;99.90;;;;;;5125575;27;20057;-79
2022/03/19 03:33:48;;;;;;;17.92;5.20;;;3.20;99.90;;;;;;5131295;27;20035;-79
2022/03/19 03:36:14;;;;;;;21.30;5.97;;;3.50;99.90;;;;;;5147373;27;20038;-79
2022/03/19 03:38:40;;;;;;;21.38;6.18;;;3.20;99.90;;;;;;5130678;27;20035;-79
2022/03/19 03:41:06;;;;;;;20.92;5.63;;;3.20;99.90;;;;;;5131378;27;20038;-79
2022/03/19 03:43:32;;;;;;;16.73;5.60;;;3.20;99.90;;;;;;5148880;27;20125;-79
2022/03/19 03:45:58;;;;;;;17.48;5.53;;;3.20;99.90;;;;;;5109384;28;20099;-79
2022/03/19 03:48:24;;;;;;;17.65;5.60;;;3.20;99.90;;;;;;5144495;28;20509;-79
2022/03/19 03:50:56;;;;;;;20.52;6.00;;;3.20;99.90;;;;;;5110100;28;20049;-79
2022/03/19 03:53:28;;;;;;;18.77;6.40;;;3.20;99.90;;;;;;5143884;28;20091;-79
2022/03/19 03:55:54;;;;;;;;;;;3.30;99.90;;;;;;5110800;28;20031;-79
2022/03/19 03:58:20;;;;;;;22.02;6.97;;;3.10;99.90;;;;;;5127127;27;19922;-79
2022/03/19 04:00:46;;;;;;;18.83;6.35;;;3.70;99.90;;;;;;5126633;28;20039;-79
2022/03/19 04:03:12;;;;;;;19.13;6.43;;;3.80;99.90;;;;;;5127482;28;20188;-79
2022/03/19 04:05:38;;;;;;;20.55;6.30;;;3.10;99.90;;;;;;5127355;28;20047;-79
2022/03/19 04:08:04;;;;;;;18.05;6.47;;;3.10;99.90;;;;;;5110109;28;20138;-79
2022/03/19 04:10:31;;;;;;;16.77;5.80;;;3.10;99.90;;;;;;5110018;28;20043;-79
2022/03/19 04:13:00;;;;;;;16.83;5.55;;;3.10;99.90;;;;;;5093060;28;20089;-79
2022/03/19 04:15:26;;;;;;;20.75;6.07;;;3.10;99.90;;;;;;5093144;28;20031;-79
2022/03/19 04:17:52;;;;;;;20.23;6.15;;;3.00;99.90;;;;;;5126583;28;20088;-79
2022/03/19 04:20:18;;;;;;;20.35;6.15;;;3.00;99.90;;;;;;5126887;28;20046;-79
2022/03/19 04:22:46;;;;;;;18.65;6.47;;;3.00;99.90;;;;;;5109414;28;20065;-79
2022/03/19 04:25:12;;;;;;;17.73;6.03;;;3.00;99.90;;;;;;5092913;28;20066;-79
2022/03/19 04:27:40;;;;;;;23.02;6.28;;;2.90;99.90;;;;;;5126733;28;20060;-79
2022/03/19 04:30:06;;;;;;;18.15;5.70;;;2.90;99.90;;;;;;5127140;28;20041;-79
2022/03/19 04:32:32;;;;;;;20.45;6.18;;;2.90;99.90;;;;;;5109334;28;20125;-79
2022/03/19 04:36:29;;;;;;;18.75;6.38;;;2.80;99.90;;;;;;5093175;28;20031;-79
2022/03/19 04:37:43;;;;;;;19.40;6.32;;;2.90;99.90;;;;;;5112143;28;20153;-79
2022/03/19 04:40:10;;;;;;;17.88;6.32;;;2.90;99.90;;;;;;5076499;28;20032;-79
2022/03/19 04:42:35;;;;;;;20.58;6.43;;;2.90;99.90;;;;;;5109672;28;20035;-79
2022/03/19 04:45:01;;;;;;;20.23;7.15;;;2.90;99.90;;;;;;5126560;28;20047;-79
2022/03/19 04:47:28;;;;;;;18.70;6.35;;;3.00;99.90;;;;;;5109952;27;20038;-79
2022/03/19 04:49:54;;;;;;;20.35;6.78;;;2.90;99.90;;;;;;5130404;27;20050;-79
2022/03/19 04:52:20;;;;;;;17.70;5.90;;;2.90;99.90;;;;;;5095626;27;20039;-79
2022/03/19 04:54:45;;;;;;;18.40;6.45;;;3.00;99.90;;;;;;5129887;27;20126;-79
2022/03/19 04:57:11;;;;;;;21.88;6.70;;;2.90;99.90;;;;;;5113190;27;20476;-79
2022/03/19 04:59:37;;;;;;;20.20;6.50;;;2.80;99.90;;;;;;5130236;27;20530;-79
2022/03/19 05:02:03;;;;;;;17.85;6.43;;;2.80;99.90;;;;;;5113267;27;20043;-79
2022/03/19 05:04:29;;;;;;;21.48;6.60;;;2.80;99.90;;;;;;5129787;27;20489;-79
2022/03/19 05:06:55;;;;;;;17.98;6.80;;;2.80;99.90;;;;;;5095862;27;20042;-79
2022/03/19 05:12:05;;;;;;;21.23;6.82;;;2.80;99.90;;;;;;5114594;27;20126;-79
2022/03/19 05:14:30;;;;;;;18.88;6.90;;;2.80;99.90;;;;;;5112823;27;20073;-79
2022/03/19 05:16:56;;;;;;;20.67;6.90;;;2.80;99.90;;;;;;5095480;27;20035;-79
2022/03/19 05:19:22;;;;;;;17.63;6.80;;;2.80;99.90;;;;;;5112872;27;20096;-79
2022/03/19 05:21:47;;;;;;;19.67;7.03;;;2.90;99.90;;;;;;5078677;27;20051;-79
2022/03/19 05:24:13;;;;;;;15.93;6.80;;;2.90;99.90;;;;;;5113426;27;20076;-79
2022/03/19 05:26:39;;;;;;;21.45;7.28;;;2.80;99.90;;;;;;5078995;27;20545;-79
2022/03/19 05:29:04;;;;;;;18.33;7.10;;;2.90;99.90;;;;;;5095923;27;20092;-79
2022/03/19 05:31:30;;;;;;;22.15;8.20;;;2.90;99.90;;;;;;5112284;27;20039;-79
2022/03/19 05:36:41;;;;;;;22.23;8.00;;;2.80;99.90;;;;;;5113793;27;20049;-79
2022/03/19 05:39:06;;;;;;;21.80;8.07;;;2.80;99.90;;;;;;5129194;27;20031;-79
2022/03/19 05:41:32;;;;;;;21.42;8.73;;;2.90;99.90;;;;;;5095212;27;20078;-79
2022/03/19 05:43:58;;;;;;;19.60;8.10;;;3.00;99.90;;;;;;5095411;27;20039;-79
2022/03/19 05:46:24;;;;;;;19.33;8.38;;;2.80;99.90;;;;;;5111107;27;20121;-79
2022/03/19 05:48:50;;;;;;;22.33;8.95;;;2.80;99.90;;;;;;5111761;27;20042;-79
2022/03/19 05:51:15;;;;;;;24.02;8.50;;;2.90;99.90;;;;;;5095029;27;20406;-79
2022/03/19 05:53:41;;;;;;;20.30;8.48;;;3.00;99.90;;;;;;5094269;27;20038;-79
2022/03/19 05:56:07;;;;;;;19.55;8.25;;;3.00;99.90;;;;;;5111687;27;20035;-79
2022/03/19 05:58:33;;;;;;;20.33;8.60;;;3.10;99.90;;;;;;5111733;27;20037;-79
2022/03/19 06:00:58;;;;;;;24.52;9.18;;;2.90;99.90;;;;;;5112320;27;20122;-79
2022/03/19 06:03:24;;;;;;;20.42;8.52;;;3.00;99.90;;;;;;5095138;27;20078;-79
2022/03/19 06:05:50;;;;;;;21.02;8.80;;;2.90;99.90;;;;;;5094672;27;20038;-78
2022/03/19 06:08:15;;;;;;;22.63;8.70;;;3.00;99.90;;;;;;5094262;27;20043;-78
2022/03/19 06:10:41;;;;;;;19.95;7.88;;;2.90;99.90;;;;;;5128505;27;20045;-78
2022/03/19 06:13:07;;;;;;;23.27;8.27;;;2.90;99.90;;;;;;5127883;27;20055;-78
2022/03/19 06:15:34;;;;;;;24.33;8.27;;;2.90;99.90;;;;;;5094411;27;20051;-78
2022/03/19 06:17:59;;;;;;;22.00;7.60;;;3.00;99.90;;;;;;5127625;27;20043;-78
2022/03/19 06:20:25;;;;;;;18.90;8.30;;;3.80;99.90;;;;;;5127948;27;20046;-78
2022/03/19 06:22:51;;;;;;;20.85;7.78;;;3.50;99.90;;;;;;5094120;27;20175;-78
2022/03/19 06:25:16;;;;;;;23.02;7.65;;;3.00;99.90;;;;;;5127432;27;20039;-78
2022/03/19 06:27:42;;;;;;;20.83;7.38;;;3.00;99.90;;;;;;5110788;27;20045;-78
2022/03/19 06:30:08;;;;;;;21.05;7.90;;;3.00;99.90;;;;;;5110963;27;20039;-78
2022/03/19 06:32:39;;;;;;;23.17;7.78;;;3.00;99.90;;;;;;5110920;27;20069;-78
2022/03/19 06:35:05;;;;;;;18.60;7.38;;;3.20;99.90;;;;;;5127761;27;20046;-78
2022/03/19 06:37:31;;;;;;;22.95;8.00;;;3.20;99.90;;;;;;5110585;27;20031;-78
2022/03/19 06:40:00;;;;;;;20.75;6.70;;;3.40;99.90;;;;;;5111631;27;20035;-78
2022/03/19 06:42:26;;;;;;;22.38;7.30;;;3.50;99.90;;;;;;5096271;27;20489;-78
2022/03/19 06:44:52;;;;;;;21.05;7.18;;;3.80;99.90;;;;;;5094911;27;20103;-78
2022/03/19 06:47:18;;;;;;;20.85;6.35;;;4.20;99.90;;;;;;5112083;27;20051;-78
2022/03/19 06:49:44;;;;;;;19.73;6.82;;;4.50;99.90;;;;;;5111668;27;20035;-79
2022/03/19 06:52:10;;;;;;;19.05;6.80;;;4.70;99.90;;;;;;5094424;27;20039;-79
2022/03/19 06:54:36;;;;;;;16.20;5.70;;;5.80;99.90;;;;;;5095394;27;20035;-79
2022/03/19 06:57:02;;;;;;;16.48;6.30;;;5.60;99.90;;;;;;5093589;27;20039;-79
2022/03/19 06:59:28;;;;;;;16.40;6.00;;;6.00;99.90;;;;;;5101619;27;20043;-79
2022/03/19 07:01:53;;;;;;;14.70;6.00;;;6.40;99.90;;;;;;5112103;27;20039;-79
2022/03/19 07:04:20;;;;;;;18.00;5.85;;;6.50;99.90;;;;;;5120163;27;20035;-79
2022/03/19 07:06:46;;;;;;;16.90;5.18;;;6.30;99.90;;;;;;5108911;27;20074;-79
2022/03/19 07:09:12;;;;;;;15.93;5.80;;;6.60;99.90;;;;;;5111748;27;20054;-79
2022/03/19 07:11:37;;;;;;;20.13;6.05;;;6.50;99.90;;;;;;5103654;27;20053;-79
2022/03/19 07:14:07;;;;;;;15.68;5.68;;;6.40;99.90;;;;;;5128756;27;20074;-79
2022/03/19 07:16:33;;;;;;;19.20;6.22;;;6.40;99.90;;;;;;5113925;27;20173;-79
2022/03/19 07:18:59;;;;;;;15.25;6.13;;;6.50;99.90;;;;;;5112213;27;20035;-79
2022/03/19 07:21:25;;;;;;;18.02;6.40;;;6.30;99.90;;;;;;5127718;27;20051;-79
2022/03/19 07:23:51;;;;;;;17.27;6.40;;;6.40;99.90;;;;;;5110928;27;20054;-79
2022/03/19 07:26:16;;;;;;;17.92;6.05;;;6.40;99.90;;;;;;5110952;27;20060;-79
2022/03/19 07:28:43;;;;;;;15.73;6.07;;;6.50;99.90;;;;;;5127609;28;20047;-79
2022/03/19 07:31:08;;;;;;;17.48;5.93;;;6.60;99.90;;;;;;5094213;27;20418;-79
2022/03/19 07:33:34;;;;;;;18.30;6.10;;;6.70;99.90;;;;;;5110799;27;20456;-79
2022/03/19 07:36:02;;;;;;;15.85;5.80;;;6.70;99.90;;;;;;5094855;28;20031;-79
2022/03/19 07:38:28;;;;;;;19.88;6.20;;;6.80;99.90;;;;;;5109348;27;20047;-79
2022/03/19 07:43:38;;;;;;;17.38;5.18;;;6.90;99.90;;;;;;5135426;27;20042;-79
2022/03/19 07:46:03;;;;;;;18.08;6.00;;;7.00;99.90;;;;;;5150233;27;20043;-79
2022/03/19 07:48:29;;;;;;;16.63;5.30;;;7.10;99.90;;;;;;5115424;27;20038;-79
2022/03/19 07:50:55;;;;;;;13.52;5.20;;;7.60;99.90;;;;;;5110944;27;20091;-79
2022/03/19 07:53:21;;;;;;;13.48;4.47;;;7.60;99.90;;;;;;5127810;27;20032;-81
2022/03/19 07:55:47;;;;;;;12.40;4.15;;;7.70;99.90;;;;;;5113775;27;20068;-80
2022/03/19 07:58:13;;;;;;;18.98;5.55;;;7.80;99.90;;;;;;5085394;27;20046;-80
2022/03/19 08:00:39;;;;;;;14.55;4.95;;;7.80;99.90;;;;;;5126038;27;20042;-81
2022/03/19 08:03:05;;;;;;;15.30;4.63;;;7.80;99.90;;;;;;5092823;27;20035;-81
2022/03/19 08:05:30;;;;;;;16.02;4.65;;;7.80;99.90;;;;;;5124672;27;20046;-81
2022/03/19 08:07:56;;;;;;;17.25;5.15;;;7.90;99.90;;;;;;5126931;28;20035;-81
2022/03/19 08:10:24;;;;;;;15.93;4.57;;;8.00;99.90;;;;;;5125923;27;20032;-81
2022/03/19 08:12:49;;;;;;;16.75;4.72;;;8.10;99.90;;;;;;5090233;27;20054;-80
2022/03/19 08:15:16;;;;;;;16.52;5.28;;;8.10;99.90;;;;;;5090878;28;20545;-80
2022/03/19 08:17:42;;;;;;;17.25;5.40;;;8.10;99.90;;;;;;5086360;28;20152;-80
2022/03/19 08:20:08;;;;;;;16.13;5.70;;;8.10;99.90;;;;;;5111315;28;20038;-80
2022/03/19 08:22:34;;;;;;;19.38;5.80;;;8.20;99.90;;;;;;5090499;27;20038;-80
2022/03/19 08:25:01;;;;;;;15.60;5.20;;;8.30;99.90;;;;;;5127407;27;20398;-80
2022/03/19 08:27:27;;;;;;;17.33;5.55;;;8.40;99.90;;;;;;5125492;27;20045;-80
2022/03/19 08:29:53;;;;;;;17.33;4.60;;;8.30;99.90;;;;;;5110980;27;20070;-80
2022/03/19 08:32:20;;;;;;;16.92;5.25;;;8.50;99.90;;;;;;5109782;27;20039;-80
2022/03/19 08:34:46;;;;;;;19.45;5.35;;;8.50;99.90;;;;;;5130400;27;20043;-80
2022/03/19 08:37:12;;;;;;;15.13;3.88;;;8.60;99.90;;;;;;5117641;27;20042;-81
2022/03/19 08:42:22;;;;;;;17.00;4.47;;;8.80;99.90;;;;;;5110794;27;20035;-81
2022/03/19 08:44:49;;;;;;;15.20;4.82;;;8.90;98.10;;;;;;5141263;27;20031;-80
2022/03/19 08:47:15;;;;;;;12.88;3.90;;;8.90;99.10;;;;;;5112897;27;20046;-80
2022/03/19 08:49:41;;;;;;;17.25;5.00;;;9.10;98.70;;;;;;5141261;27;20039;-80
2022/03/19 08:52:07;;;;;;;14.50;3.42;;;9.10;98.70;;;;;;5116461;27;20583;-80
2022/03/19 08:54:33;;;;;;;13.15;3.40;;;9.30;95.00;;;;;;5103061;27;20032;-80
2022/03/19 08:56:59;;;;;;;13.52;3.67;;;9.40;94.60;;;;;;5117156;27;20046;-80
2022/03/19 08:59:25;;;;;;;14.18;3.90;;;9.50;96.30;;;;;;5127066;27;20049;-80
2022/03/19 09:01:54;;;;;;;15.48;4.05;;;9.60;96.70;;;;;;5116032;27;20383;-80
2022/03/19 09:04:20;;;;;;;16.02;4.22;;;9.70;96.20;;;;;;5102627;27;20144;-80
2022/03/19 09:06:47;;;;;;;14.27;3.92;;;9.80;95.10;;;;;;5117031;27;20039;-80
2022/03/19 09:09:14;;;;;;;14.02;3.92;;;10.00;94.60;;;;;;5096602;27;20504;-80
2022/03/19 09:11:41;;;;;;;13.35;4.00;;;10.20;92.00;;;;;;5092130;27;20043;-80
2022/03/19 09:14:08;;;;;;;14.75;3.90;;;10.20;90.10;;;;;;5093283;27;20087;-80
2022/03/19 09:16:35;;;;;;;12.23;3.42;;;10.20;90.20;;;;;;5117278;27;20439;-80
2022/03/19 09:19:01;;;;;;;13.40;3.60;;;10.40;81.80;;;;;;5130263;27;20042;-80
2022/03/19 09:21:29;;;;;;;12.20;3.22;;;10.40;84.50;;;;;;5108790;27;20049;-80
2022/03/19 09:23:56;;;;;;;19.13;3.00;;;10.70;84.50;;;;;;5111530;27;20397;-80
2022/03/19 09:26:21;;;;;;;12.02;3.08;;;10.80;78.30;;;;;;5110921;27;20050;-80
2022/03/19 09:28:47;;;;;;;13.40;3.33;;;10.90;78.00;;;;;;5113648;27;20038;-80
2022/03/19 09:31:15;;;;;;;13.93;3.55;;;11.00;76.70;;;;;;5109278;27;20035;-80
2022/03/19 09:33:42;;;;;;;13.23;3.25;;;11.00;81.30;;;;;;5130177;27;20039;-80
2022/03/19 09:36:08;;;;;;;11.30;3.28;;;11.30;74.40;;;;;;5111853;27;20053;-80
2022/03/19 09:38:35;;;;;;;11.02;3.05;;;11.40;71.80;;;;;;5130613;27;20031;-80
2022/03/19 09:41:01;;;;;;;8.88;2.53;;;11.40;70.30;;;;;;5137861;27;20098;-80
2022/03/19 09:43:29;;;;;;;10.90;3.15;;;11.50;71.20;;;;;;5118573;27;20555;-80
2022/03/19 09:45:55;;;;;;;11.35;3.10;;;11.60;71.30;;;;;;5110371;27;20125;-80
2022/03/19 09:48:22;;;;;;;13.55;3.38;;;11.60;68.70;;;;;;5130478;27;20051;-80
2022/03/19 09:50:53;;;;;;;13.05;3.25;;;11.70;69.60;;;;;;5107755;27;20513;-80
2022/03/19 09:53:23;;;;;;;11.45;3.08;;;11.90;67.00;;;;;;5117905;27;20039;-79
2022/03/19 09:55:48;;;;;;;8.88;2.80;;;12.00;65.80;;;;;;5134827;27;20058;-80
2022/03/19 09:58:15;;;;;;;11.63;3.13;;;12.00;66.90;;;;;;5132570;27;20035;-80
2022/03/19 10:00:43;;;;;;;13.43;3.33;;;12.00;65.90;;;;;;5105235;27;20070;-80
2022/03/19 10:03:10;;;;;;;12.13;3.47;;;12.00;66.20;;;;;;5131731;27;20039;-80
2022/03/19 10:08:43;;;;;;;12.23;3.17;;;12.10;65.10;;;;;;5130202;27;20126;-79
2022/03/19 10:11:10;;;;;;;12.45;3.08;;;12.10;66.60;;;;;;5097760;27;20032;-79
2022/03/19 10:13:47;;;;;;;9.02;2.88;;;12.20;62.70;;;;;;5125168;27;20059;-79
2022/03/19 10:16:24;;;;;;;12.55;3.25;;;12.40;62.50;;;;;;5128389;27;20047;-79
2022/03/19 10:18:59;;;;;;;11.32;2.75;;;12.60;61.00;;;;;;5140001;27;20034;-79
2022/03/19 10:21:26;;;;;;;11.07;3.10;;;12.30;60.60;;;;;;5112304;27;20043;-79
2022/03/19 10:23:55;;;;;;;11.18;3.15;;;12.50;60.60;;;;;;5110776;27;20066;-79
2022/03/19 10:26:31;;;;;;;9.10;2.97;;;12.40;59.00;;;;;;5119642;27;20042;-79
2022/03/19 10:29:09;;;;;;;11.40;3.20;;;12.30;58.80;;;;;;5137567;27;20050;-78
2022/03/19 10:31:37;;;;;;;9.70;2.85;;;12.20;57.20;;;;;;5139087;27;20062;-78
2022/03/19 10:34:05;;;;;;;10.15;2.85;;;12.40;58.80;;;;;;5116785;27;20058;-78
2022/03/19 10:36:34;;;;;;;10.57;2.97;;;12.10;58.40;;;;;;5106207;27;20043;-78
2022/03/19 10:39:04;;;;;;;11.35;2.92;;;11.90;59.60;;;;;;5111197;27;20091;-78
2022/03/19 10:41:34;;;;;;;9.07;2.72;;;12.10;59.20;;;;;;5132669;27;20039;-78
2022/03/19 10:44:10;;;;;;;12.18;3.33;;;12.40;58.40;;;;;;5115661;27;20039;-78
2022/03/19 10:46:37;;;;;;;10.93;2.80;;;12.30;57.70;;;;;;5129991;27;20035;-80
2022/03/19 10:49:11;;;;;;;9.98;2.70;;;12.50;56.30;;;;;;5109802;27;20098;-79
2022/03/19 10:51:36;;;;;;;10.20;2.47;;;12.60;56.40;;;;;;5126848;27;20046;-79
2022/03/19 10:54:03;;;;;;;9.10;2.67;;;12.40;58.20;;;;;;5096993;27;20043;-79
2022/03/19 10:56:29;;;;;;;10.73;2.65;;;12.50;56.40;;;;;;5114364;27;20043;-80
2022/03/19 10:58:55;;;;;;;7.88;2.47;;;12.50;56.80;;;;;;5128247;27;20042;-80
2022/03/19 11:01:21;;;;;;;8.10;2.42;;;12.80;54.50;;;;;;5114062;27;20051;-80
2022/03/19 11:03:49;;;;;;;9.80;2.65;;;12.40;53.80;;;;;;5112707;27;20115;-79
2022/03/19 11:06:16;;;;;;;9.05;2.58;;;12.40;56.50;;;;;;5114018;27;20094;-79
2022/03/19 11:08:43;;;;;;;7.97;2.47;;;12.50;56.20;;;;;;5112354;27;20035;-79
2022/03/19 11:11:28;;;;;;;8.10;2.40;;;12.30;54.50;;;;;;5132700;27;20047;-79
2022/03/19 11:13:57;;;;;;;8.38;2.40;;;12.50;53.30;;;;;;5115325;27;20039;-79
2022/03/19 11:16:25;;;;;;;8.75;2.45;;;12.70;54.10;;;;;;5125651;27;20039;-80
2022/03/19 11:18:52;;;;;;;7.65;2.55;;;12.60;52.60;;;;;;5114983;27;20045;-79
2022/03/19 11:21:19;;;;;;;7.40;2.30;;;12.50;51.60;;;;;;5109114;27;20099;-79
2022/03/19 11:23:50;;;;;;;8.45;2.50;;;12.50;51.40;;;;;;5117167;27;20062;-79
2022/03/19 11:26:23;;;;;;;7.88;2.35;;;12.20;52.20;;;;;;5109836;27;20038;-79
2022/03/19 11:28:49;;;;;;;7.55;2.25;;;12.50;52.80;;;;;;5111514;27;20042;-79
2022/03/19 11:31:29;;;;;;;8.98;2.80;;;12.60;52.30;;;;;;5115398;28;20045;-79
2022/03/19 11:34:17;;;;;;;8.43;2.15;;;12.80;50.90;;;;;;5126595;28;20055;-79
2022/03/19 11:36:57;;;;;;;9.02;2.53;;;12.80;50.80;;;;;;5113263;27;20043;-79
2022/03/19 11:39:23;;;;;;;6.68;2.20;;;12.50;49.30;;;;;;5131413;28;20071;-79
2022/03/19 11:41:49;;;;;;;8.10;2.30;;;12.80;51.10;;;;;;5099105;28;20061;-79
2022/03/19 11:44:20;;;;;;;6.68;2.00;;;12.60;50.10;;;;;;5114923;28;20072;-79
2022/03/19 11:47:05;;;;;;;7.03;2.13;;;12.80;51.40;;;;;;5097489;28;20050;-79
2022/03/19 11:49:52;;;;;;;7.38;1.95;;;12.80;50.50;;;;;;5126876;28;20102;-79
2022/03/19 11:52:24;;;;;;;8.70;1.98;;;12.90;50.10;;;;;;5114825;28;20122;-79
2022/03/19 11:55:03;;;;;;;6.13;1.55;;;12.90;49.40;;;;;;5133183;28;20039;-79
2022/03/19 11:57:48;;;;;;;5.28;1.55;;;13.10;51.00;;;;;;5115625;27;20125;-79
2022/03/19 12:00:18;;;;;;;7.78;2.08;;;13.10;48.00;;;;;;5100952;27;20038;-79
2022/03/19 12:03:24;;;;;;;6.55;2.00;;;12.80;47.90;;;;;;5099337;27;20045;-79
2022/03/19 12:05:50;;;;;;;5.43;1.80;;;12.60;48.30;;;;;;5114160;27;20041;-79
2022/03/19 12:08:21;;;;;;;8.00;2.90;;;12.70;48.50;;;;;;5112508;27;20107;-79
2022/03/19 12:11:01;;;;;;;6.90;2.20;;;13.00;46.70;;;;;;5114548;27;20035;-79
2022/03/19 12:13:26;;;;;;;7.70;2.40;;;13.00;48.90;;;;;;5113609;27;20486;-79
2022/03/19 12:15:57;;;;;;;7.50;2.20;;;13.10;49.90;;;;;;5134172;27;20047;-79
2022/03/19 12:18:25;;;;;;;7.03;1.92;;;13.20;48.20;;;;;;5118420;27;20046;-79
2022/03/19 12:20:51;;;;;;;7.82;2.10;;;13.30;48.20;;;;;;5117393;27;20043;-79
2022/03/19 12:23:18;;;;;;;6.32;1.83;;;13.40;48.60;;;;;;5099501;27;20046;-79
2022/03/19 12:26:05;;;;;;;6.38;2.20;;;13.50;47.50;;;;;;5134166;27;20039;-79
2022/03/19 12:28:31;;;;;;;7.53;2.10;;;13.50;48.10;;;;;;5117551;27;20050;-79
2022/03/19 12:31:12;;;;;;;5.90;2.10;;;13.30;46.10;;;;;;5099663;27;20459;-79
2022/03/19 12:33:39;;;;;;;7.30;2.20;;;13.20;48.00;;;;;;5117324;27;20036;-79
2022/03/19 12:36:16;;;;;;;7.88;2.40;;;13.10;49.90;;;;;;5133118;27;20277;-79
2022/03/19 12:38:42;;;;;;;8.68;2.97;;;13.30;49.80;;;;;;5115204;27;20099;-79
2022/03/19 12:41:38;;;;;;;8.05;2.35;;;13.40;49.40;;;;;;5133362;27;20054;-79
2022/03/19 12:44:06;;;;;;;7.40;2.40;;;13.30;48.70;;;;;;5116799;27;20047;-79
2022/03/19 12:46:37;;;;;;;6.03;1.90;;;13.00;48.60;;;;;;5116560;27;20047;-79
2022/03/19 12:49:16;;;;;;;7.53;2.10;;;13.00;47.90;;;;;;5134191;27;20103;-79
2022/03/19 12:51:47;;;;;;;6.70;1.88;;;13.10;48.40;;;;;;5133520;27;20149;-79
2022/03/19 12:54:22;;;;;;;8.00;2.20;;;13.10;49.00;;;;;;5132993;27;20043;-79
2022/03/19 12:56:49;;;;;;;7.18;2.20;;;13.10;48.70;;;;;;5116346;27;20050;-79
2022/03/19 12:59:18;;;;;;;5.68;1.70;;;13.00;48.40;;;;;;5099560;27;20039;-79
2022/03/19 13:01:44;;;;;;;6.55;1.70;;;12.80;47.00;;;;;;5133112;27;20042;-79
2022/03/19 13:04:17;;;;;;;5.70;1.75;;;13.00;47.50;;;;;;5114634;27;20043;-79